Franklintown, Pennsylvania
Current Conditions -  °F | °C
As of 1:56 PM on Thursday 23 Oct 2014 (Local Time) from KCXY Reporting Station
Broken Clouds Broken Clouds  
Wind Chill: 61°   Ceiling: 3900
Heat Index: 61°   Visibility: 10mi
Dew Point: 45°   Wind: 14mph
Humidity: 56%   Direction: 320°NW
Pressure: 29.84"   Gusts: 22mph
Location:  40.08°N, 77.03°W
Report Text: KCXY 231756Z 32012G19KT 10SM BKN039 16/07 A2984 RMK AO2 SLP105 T01610072 10161 20122 58018
Loading
Personal Weather Stations






























Interactive Weather Map
Tropical Storm Tracking
New forecast layout! Learn more

10-Day Weather Forecast

Advertisements
Track Severe Weather on mobile